Time;durP1;ratioP1;P1;durP2;ratioP2;P2;SDS_P1;SDS_P2;PMS_P1;PMS_P2;Temp;Humidity;BMP_temperature;BMP_pressure;BME280_temperature;BME280_humidity;BME280_pressure;Samples;Min_cycle;Max_cycle;Signal;HPM_P1;HPM_P2
2021/11/30 00:01:00;;;;;;;0.30;0.30;;;;;;;4.11;75.81;101114.69;5071372;28;20013;-70
2021/11/30 00:03:26;;;;;;;0.30;0.30;;;;;;;4.13;76.20;101118.25;5054060;28;20056;-69
2021/11/30 00:05:51;;;;;;;0.30;0.30;;;;;;;4.09;76.88;101106.81;5076708;28;20039;-70
2021/11/30 00:08:19;;;;;;;0.20;0.20;;;;;;;4.12;77.09;101093.13;5051464;28;20044;-68
2021/11/30 00:10:45;;;;;;;0.30;0.30;;;;;;;4.14;77.75;101094.13;5058381;28;20348;-67
2021/11/30 00:13:14;;;;;;;0.20;0.20;;;;;;;4.14;78.45;101088.94;5057975;28;20058;-65
2021/11/30 00:15:40;;;;;;;0.20;0.20;;;;;;;4.13;78.84;101087.16;5076382;28;20020;-68
2021/11/30 00:18:05;;;;;;;0.30;0.30;;;;;;;4.16;79.04;101074.34;5069789;28;20029;-67
2021/11/30 00:20:31;;;;;;;0.23;0.23;;;;;;;4.19;79.74;101071.06;5056469;28;20089;-68
2021/11/30 00:22:56;;;;;;;0.20;0.20;;;;;;;4.17;80.62;101073.53;5064203;28;20036;-68
2021/11/30 00:25:25;;;;;;;0.20;0.20;;;;;;;4.18;81.21;101064.09;5076343;28;20072;-70
2021/11/30 00:27:52;;;;;;;0.20;0.20;;;;;;;4.17;82.31;101058.00;5060359;28;20040;-67
2021/11/30 00:30:17;;;;;;;0.20;0.20;;;;;;;4.16;82.54;101050.16;5075662;28;20035;-65
2021/11/30 00:32:43;;;;;;;0.10;0.10;;;;;;;4.13;83.29;101056.91;5032398;28;20024;-67
2021/11/30 00:35:08;;;;;;;0.20;0.20;;;;;;;4.16;83.69;101045.84;5076478;28;20371;-74
2021/11/30 00:37:33;;;;;;;0.20;0.20;;;;;;;4.19;83.77;101035.66;5076824;28;20394;-67
2021/11/30 00:39:59;;;;;;;0.20;0.20;;;;;;;4.21;83.74;101028.88;5076462;28;20047;-66
2021/11/30 00:42:25;;;;;;;0.20;0.20;;;;;;;4.20;84.32;101029.69;5076763;28;20387;-67
2021/11/30 00:44:52;;;;;;;0.20;0.20;;;;;;;4.19;85.04;101021.81;5077153;28;20058;-67
2021/11/30 00:47:19;;;;;;;0.10;0.10;;;;;;;4.25;85.03;101012.66;5077043;28;20035;-67
2021/11/30 00:49:47;;;;;;;0.10;0.10;;;;;;;4.24;85.64;101015.19;5076931;28;20048;-68
2021/11/30 00:52:13;;;;;;;0.20;0.20;;;;;;;4.24;85.82;101012.59;5059308;28;20071;-67
2021/11/30 00:54:41;;;;;;;0.10;0.10;;;;;;;4.28;86.47;101008.47;5058981;28;20375;-66
2021/11/30 00:57:06;;;;;;;0.10;0.10;;;;;;;4.33;86.72;101010.53;5076706;28;20066;-66
2021/11/30 00:59:31;;;;;;;0.13;0.13;;;;;;;4.35;86.57;101015.81;5059415;28;20028;-69
2021/11/30 01:01:58;;;;;;;0.10;0.10;;;;;;;4.47;86.63;101000.91;5077521;28;20107;-67
2021/11/30 01:04:23;;;;;;;0.10;0.10;;;;;;;4.49;86.79;101001.00;5075838;28;20057;-67
2021/11/30 01:06:49;;;;;;;0.10;0.10;;;;;;;4.54;87.17;100999.53;5041663;28;20082;-71
2021/11/30 01:09:15;;;;;;;0.00;0.00;;;;;;;4.61;87.39;100996.47;5072913;28;20036;-64
2021/11/30 01:11:40;;;;;;;0.40;0.40;;;;;;;4.63;87.54;100981.91;5058174;28;20060;-68
2021/11/30 01:14:06;;;;;;;0.00;0.00;;;;;;;4.67;87.64;100982.97;5036512;28;20021;-66
2021/11/30 01:16:33;;;;;;;0.00;0.00;;;;;;;4.68;87.70;100982.16;5058156;28;20066;-66
2021/11/30 01:18:59;;;;;;;0.00;0.00;;;;;;;4.70;87.74;100977.94;5075683;28;20028;-69
2021/11/30 01:21:24;;;;;;;0.10;0.10;;;;;;;4.78;87.92;100975.75;5075568;28;20041;-67
2021/11/30 01:23:50;;;;;;;0.10;0.10;;;;;;;4.78;87.92;100980.94;5076300;28;20032;-65
2021/11/30 01:26:15;;;;;;;0.03;0.03;;;;;;;4.78;88.03;100976.66;5075961;28;20025;-68
2021/11/30 01:28:40;;;;;;;0.10;0.10;;;;;;;4.82;88.29;100972.53;5076471;28;20032;-71
2021/11/30 01:31:06;;;;;;;0.00;0.00;;;;;;;4.84;88.06;100955.34;5075724;28;20425;-65
2021/11/30 01:33:34;;;;;;;0.00;0.00;;;;;;;4.85;88.30;100969.22;5058725;28;20032;-65
2021/11/30 01:36:00;;;;;;;0.00;0.00;;;;;;;4.88;88.33;100972.88;5076883;28;20326;-66
2021/11/30 01:38:27;;;;;;;0.00;0.00;;;;;;;4.92;88.54;100980.00;5075925;28;20028;-65
2021/11/30 01:40:54;;;;;;;0.03;0.03;;;;;;;5.01;89.02;100969.22;5076193;28;20040;-66
2021/11/30 01:43:23;;;;;;;0.00;0.00;;;;;;;5.05;88.59;100971.16;5042765;28;20047;-66
2021/11/30 01:51:31;;;;;;;0.00;0.00;;;;;;;5.12;88.80;100945.53;5076579;28;20047;-67
2021/11/30 01:53:58;;;;;;;0.00;0.00;;;;;;;5.16;89.16;100930.19;5076676;28;20032;-67
2021/11/30 01:56:24;;;;;;;0.00;0.00;;;;;;;5.20;89.12;100933.84;5059046;28;20359;-67
2021/11/30 01:58:51;;;;;;;0.00;0.00;;;;;;;5.27;89.27;100930.75;5075533;28;20068;-70
2021/11/30 02:01:17;;;;;;;0.00;0.00;;;;;;;5.35;89.46;100926.81;5059107;28;20393;-69
2021/11/30 02:03:43;;;;;;;0.00;0.00;;;;;;;5.45;89.58;100930.78;5076042;28;20099;-68
2021/11/30 02:06:08;;;;;;;0.00;0.00;;;;;;;5.51;89.35;100932.81;5076578;28;20021;-68
2021/11/30 02:08:33;;;;;;;0.00;0.00;;;;;;;5.54;89.45;100917.34;5041609;28;20093;-67
2021/11/30 02:10:59;;;;;;;0.00;0.00;;;;;;;5.61;89.70;100918.59;5076425;28;20028;-66
2021/11/30 02:13:25;;;;;;;0.00;0.00;;;;;;;5.67;89.68;100921.47;5076309;28;20032;-68
2021/11/30 02:15:54;;;;;;;0.00;0.00;;;;;;;5.71;89.49;100915.63;5064807;28;20033;-66
2021/11/30 02:18:24;;;;;;;0.00;0.00;;;;;;;5.79;89.39;100905.56;5057007;28;20032;-68
2021/11/30 02:20:57;;;;;;;0.00;0.00;;;;;;;5.84;89.47;100919.69;5070950;28;20107;-68
2021/11/30 02:23:47;;;;;;;0.00;0.00;;;;;;;5.85;89.32;100905.00;5079278;28;20025;-66
2021/11/30 02:26:14;;;;;;;0.00;0.00;;;;;;;5.87;89.43;100903.38;5079254;28;20345;-66
2021/11/30 02:28:42;;;;;;;0.00;0.00;;;;;;;5.91;89.41;100902.69;5079516;28;20036;-67
2021/11/30 02:31:10;;;;;;;0.00;0.00;;;;;;;5.94;89.34;100902.84;5079725;28;20027;-65
2021/11/30 02:33:35;;;;;;;0.00;0.00;;;;;;;6.00;90.06;100892.75;5079379;28;20108;-67
2021/11/30 02:36:12;;;;;;;0.20;0.20;;;;;;;5.97;89.39;100887.41;5079809;28;20158;-66
2021/11/30 02:38:37;;;;;;;0.00;0.00;;;;;;;5.99;89.54;100892.69;5061010;28;20067;-68
2021/11/30 02:41:03;;;;;;;0.00;0.00;;;;;;;6.02;89.57;100892.84;5079766;28;20041;-66
2021/11/30 02:43:28;;;;;;;0.00;0.00;;;;;;;6.05;89.63;100877.41;5079074;28;20040;-68
2021/11/30 02:45:53;;;;;;;0.10;0.10;;;;;;;6.07;89.53;100883.56;5079485;28;20403;-65
2021/11/30 02:48:19;;;;;;;0.00;0.00;;;;;;;6.08;89.28;100874.03;5079579;28;20363;-66
2021/11/30 02:50:44;;;;;;;0.00;0.00;;;;;;;6.11;89.39;100866.41;5078944;28;20041;-65
2021/11/30 02:53:15;;;;;;;0.00;0.00;;;;;;;6.12;89.23;100868.19;5077719;28;20025;-66
2021/11/30 02:55:41;;;;;;;0.00;0.00;;;;;;;6.10;89.28;100875.91;5077017;28;20039;-65
2021/11/30 02:58:06;;;;;;;0.00;0.00;;;;;;;6.10;89.12;100869.81;5077909;28;20020;-66
2021/11/30 03:00:32;;;;;;;0.00;0.00;;;;;;;6.11;89.33;100867.28;5078671;28;20028;-67
2021/11/30 03:02:58;;;;;;;0.00;0.00;;;;;;;6.15;89.21;100864.00;5078563;28;20024;-64
2021/11/30 03:05:23;;;;;;;0.00;0.00;;;;;;;6.19;89.17;100860.72;5044266;28;20349;-65
2021/11/30 03:07:49;;;;;;;0.00;0.00;;;;;;;6.21;89.25;100855.59;5077368;28;20425;-65
2021/11/30 03:10:16;;;;;;;0.00;0.00;;;;;;;6.19;89.18;100845.13;5075863;28;20394;-64
2021/11/30 03:12:43;;;;;;;0.00;0.00;;;;;;;6.21;89.19;100852.13;5076556;28;20060;-65
2021/11/30 03:15:11;;;;;;;0.00;0.00;;;;;;;6.20;89.26;100851.22;5079290;28;20020;-65
2021/11/30 03:17:37;;;;;;;0.00;0.00;;;;;;;6.23;89.25;100829.69;5078402;28;20085;-65
2021/11/30 03:20:04;;;;;;;0.00;0.00;;;;;;;6.25;89.53;100834.13;5061669;28;20379;-66
2021/11/30 03:22:29;;;;;;;0.00;0.00;;;;;;;6.29;89.36;100830.84;5077580;28;20040;-66
2021/11/30 03:24:54;;;;;;;0.00;0.00;;;;;;;6.31;89.62;100834.38;5078920;28;20397;-65
2021/11/30 03:27:20;;;;;;;0.00;0.00;;;;;;;6.37;89.59;100830.31;5078831;28;20074;-65
2021/11/30 03:29:45;;;;;;;0.00;0.00;;;;;;;6.41;89.57;100842.63;5077625;28;20295;-66
2021/11/30 03:33:58;;;;;;;0.00;0.00;;;;;;;6.46;89.64;100826.41;5078772;28;20173;-65
2021/11/30 03:34:56;;;;;;;0.00;0.00;;;;;;;6.53;89.68;100831.91;5078500;28;20024;-64
2021/11/30 03:37:21;;;;;;;0.00;0.00;;;;;;;6.51;89.41;100825.72;5061052;28;20111;-64
2021/11/30 03:39:47;;;;;;;0.00;0.00;;;;;;;6.54;89.30;100831.06;5077253;28;20314;-65
2021/11/30 03:42:12;;;;;;;0.00;0.00;;;;;;;6.56;89.30;100819.91;5078934;28;20036;-65
2021/11/30 03:44:37;;;;;;;0.00;0.00;;;;;;;6.60;89.57;100831.31;5078307;28;20032;-65
2021/11/30 03:47:03;;;;;;;0.00;0.00;;;;;;;6.64;89.18;100817.63;5078310;28;20036;-64
2021/11/30 03:49:28;;;;;;;0.00;0.00;;;;;;;6.66;89.41;100820.31;5077885;28;20055;-65
2021/11/30 03:51:54;;;;;;;0.00;0.00;;;;;;;6.65;89.24;100819.41;5078201;28;20031;-64
2021/11/30 03:54:20;;;;;;;0.00;0.00;;;;;;;6.63;89.37;100826.28;5060774;28;20020;-64
2021/11/30 03:56:46;;;;;;;0.00;0.00;;;;;;;6.64;89.28;100821.94;5078210;28;20033;-64
2021/11/30 03:59:12;;;;;;;0.00;0.00;;;;;;;6.66;89.27;100812.50;5077598;28;20083;-64
2021/11/30 04:01:38;;;;;;;0.00;0.00;;;;;;;6.71;89.55;100824.00;5060780;28;20032;-65
2021/11/30 04:06:50;;;;;;;0.00;0.00;;;;;;;6.72;89.26;100846.59;5077983;28;20461;-65
2021/11/30 04:09:16;;;;;;;0.00;0.00;;;;;;;6.78;89.50;100828.63;5077512;28;20032;-66
2021/11/30 04:11:41;;;;;;;0.00;0.00;;;;;;;6.77;89.43;100819.06;5060322;28;20020;-64
2021/11/30 04:14:07;;;;;;;0.00;0.00;;;;;;;6.78;89.73;100820.84;5077970;28;20051;-64
2021/11/30 04:16:33;;;;;;;0.00;0.00;;;;;;;6.82;89.43;100820.16;5076951;28;20033;-65
2021/11/30 04:18:59;;;;;;;0.00;0.00;;;;;;;6.83;89.71;100810.63;5060083;28;20028;-64
2021/11/30 04:21:25;;;;;;;0.00;0.00;;;;;;;6.86;89.47;100803.84;5060359;28;20040;-65
2021/11/30 04:23:51;;;;;;;0.00;0.00;;;;;;;6.89;89.49;100810.03;5059889;28;20028;-65
2021/11/30 04:26:17;;;;;;;0.00;0.00;;;;;;;6.91;89.53;100813.56;5077842;28;20092;-65
2021/11/30 04:28:44;;;;;;;0.00;0.00;;;;;;;6.91;89.72;100800.56;5077229;28;20035;-68
2021/11/30 04:31:09;;;;;;;0.00;0.00;;;;;;;6.94;89.43;100774.63;5076530;28;20047;-65
2021/11/30 04:33:35;;;;;;;0.00;0.00;;;;;;;6.95;89.55;100803.34;5077312;28;20036;-65
2021/11/30 04:36:00;;;;;;;0.00;0.00;;;;;;;6.98;89.43;100798.25;5077643;28;20107;-67
2021/11/30 04:38:26;;;;;;;0.10;0.10;;;;;;;6.98;89.61;100798.25;5076922;28;20037;-70
2021/11/30 04:40:51;;;;;;;0.00;0.00;;;;;;;7.01;89.49;100792.31;5043210;28;20048;-65
2021/11/30 04:43:17;;;;;;;0.00;0.00;;;;;;;7.06;89.50;100792.50;5077229;28;20131;-66
2021/11/30 04:46:00;;;;;;;0.00;0.00;;;;;;;7.02;89.34;100775.84;5059164;28;20112;-64
2021/11/30 04:48:26;;;;;;;0.00;0.00;;;;;;;7.05;89.31;100781.19;5056967;28;20391;-64
2021/11/30 04:50:53;;;;;;;0.47;0.30;;;;;;;7.07;89.49;100781.25;5056904;28;20040;-64
2021/11/30 04:53:25;;;;;;;0.00;0.00;;;;;;;7.09;89.18;100788.31;5023298;28;20028;-67
2021/11/30 04:55:51;;;;;;;0.00;0.00;;;;;;;7.10;89.65;100776.19;5056998;28;20043;-66
2021/11/30 04:58:17;;;;;;;0.00;0.00;;;;;;;7.11;89.46;100785.78;5056868;28;20108;-65
2021/11/30 05:00:43;;;;;;;0.00;0.00;;;;;;;7.12;89.45;100772.78;5050278;28;20138;-65
2021/11/30 05:03:09;;;;;;;0.00;0.00;;;;;;;7.12;89.62;100770.19;5077201;28;20146;-65
2021/11/30 05:05:34;;;;;;;0.00;0.00;;;;;;;7.12;89.39;100782.34;5059343;28;20108;-65
2021/11/30 05:08:00;;;;;;;0.03;0.03;;;;;;;7.16;89.26;100766.00;5075977;28;20493;-63
2021/11/30 05:10:26;;;;;;;0.00;0.00;;;;;;;7.18;89.39;100773.88;5059470;28;20029;-64
2021/11/30 05:12:51;;;;;;;0.00;0.00;;;;;;;7.17;89.43;100774.72;5042531;28;20025;-65
2021/11/30 05:15:17;;;;;;;0.00;0.00;;;;;;;7.18;89.45;100772.19;5077048;28;20154;-65
2021/11/30 05:17:42;;;;;;;0.00;0.00;;;;;;;7.22;89.25;100784.47;5076964;28;20150;-63
2021/11/30 05:20:09;;;;;;;0.00;0.00;;;;;;;7.23;89.26;100772.38;5076994;28;20063;-66
2021/11/30 05:22:35;;;;;;;0.00;0.00;;;;;;;7.22;89.44;100775.81;5076246;28;20107;-68
2021/11/30 05:25:07;;;;;;;0.00;0.00;;;;;;;7.21;89.41;100784.44;5058495;28;20069;-64
2021/11/30 05:27:39;;;;;;;0.00;0.00;;;;;;;7.26;89.11;100772.47;5059349;28;20028;-63
2021/11/30 05:30:15;;;;;;;0.00;0.00;;;;;;;7.31;89.18;100762.25;5059756;28;20112;-66
2021/11/30 05:32:43;;;;;;;0.00;0.00;;;;;;;7.30;89.19;100769.19;5076613;28;20039;-72
2021/11/30 05:35:09;;;;;;;0.03;0.03;;;;;;;7.30;89.21;100800.44;5076949;28;20028;-77
2021/11/30 05:37:35;;;;;;;0.00;0.00;;;;;;;7.32;89.01;100779.66;5042115;28;20024;-70
2021/11/30 05:40:00;;;;;;;0.00;0.00;;;;;;;7.32;89.04;100775.34;5076046;28;20051;-69
2021/11/30 05:42:26;;;;;;;0.50;0.37;;;;;;;7.32;88.97;100772.75;5076457;28;20025;-66
2021/11/30 05:44:51;;;;;;;0.00;0.00;;;;;;;7.35;89.00;100764.16;5076495;28;20032;-67
2021/11/30 05:47:17;;;;;;;0.10;0.10;;;;;;;7.36;88.98;100790.25;5076916;28;20032;-65
2021/11/30 05:49:42;;;;;;;0.10;0.10;;;;;;;7.36;88.92;100771.16;5076348;28;20077;-69
2021/11/30 05:52:08;;;;;;;0.00;0.00;;;;;;;7.41;88.88;100787.88;5059456;28;20046;-68
2021/11/30 05:54:33;;;;;;;0.00;0.00;;;;;;;7.41;88.86;100799.16;5079067;28;20032;-72
2021/11/30 05:56:58;;;;;;;0.00;0.00;;;;;;;7.41;88.83;100780.91;5080515;28;20046;-67
2021/11/30 05:59:26;;;;;;;0.00;0.00;;;;;;;7.43;88.94;100783.59;5080550;28;20020;-72
2021/11/30 06:01:54;;;;;;;0.00;0.00;;;;;;;7.42;89.05;100782.69;5063213;28;20111;-65
2021/11/30 06:04:19;;;;;;;0.00;0.00;;;;;;;7.45;88.85;100791.44;5080081;28;20024;-67
2021/11/30 06:06:52;;;;;;;0.00;0.00;;;;;;;7.43;88.85;100786.19;5080028;28;20390;-64
2021/11/30 06:09:17;;;;;;;0.00;0.00;;;;;;;7.44;88.69;100793.19;5079815;28;20035;-71
2021/11/30 06:11:45;;;;;;;0.10;0.10;;;;;;;7.46;88.55;100791.53;5079884;28;20024;-69
2021/11/30 06:14:10;;;;;;;0.10;0.10;;;;;;;7.50;88.25;100779.50;5080174;28;20016;-64
2021/11/30 06:16:35;;;;;;;0.00;0.00;;;;;;;7.51;88.43;100787.41;5075976;28;20063;-65
2021/11/30 06:19:01;;;;;;;0.00;0.00;;;;;;;7.52;88.25;100775.25;5062008;28;20020;-65
2021/11/30 06:21:26;;;;;;;0.10;0.10;;;;;;;7.51;88.26;100781.28;5079707;28;20336;-63
2021/11/30 06:23:52;;;;;;;0.00;0.00;;;;;;;7.52;88.32;100778.75;5079501;28;20078;-65
2021/11/30 06:26:17;;;;;;;0.00;0.00;;;;;;;7.55;88.35;100781.47;5061344;28;20035;-70
2021/11/30 06:28:43;;;;;;;0.00;0.00;;;;;;;7.58;87.95;100785.91;5078619;28;20302;-66
2021/11/30 06:31:09;;;;;;;0.00;0.00;;;;;;;7.59;88.03;100779.00;5061789;28;20107;-67
2021/11/30 06:33:44;;;;;;;0.10;0.10;;;;;;;7.63;87.74;100779.19;5079311;28;20059;-67
2021/11/30 06:36:10;;;;;;;0.00;0.00;;;;;;;7.70;87.36;100777.69;5060298;28;20020;-68
2021/11/30 06:38:36;;;;;;;0.00;0.00;;;;;;;7.72;87.39;100782.97;5060633;28;20047;-72
2021/11/30 06:41:01;;;;;;;0.00;0.00;;;;;;;7.77;87.11;100784.91;5062147;28;20029;-67
2021/11/30 06:43:26;;;;;;;0.00;0.00;;;;;;;7.78;87.26;100789.31;5062062;28;20020;-68
2021/11/30 06:45:52;;;;;;;0.00;0.00;;;;;;;7.80;86.93;100802.41;5079655;28;20024;-66
2021/11/30 06:48:19;;;;;;;0.00;0.00;;;;;;;7.82;86.83;100798.13;5058192;28;20414;-67
2021/11/30 06:50:48;;;;;;;0.00;0.00;;;;;;;7.89;86.64;100794.03;5079108;28;20320;-69
2021/11/30 06:53:13;;;;;;;0.10;0.10;;;;;;;7.89;86.68;100794.94;5079129;28;20036;-67
2021/11/30 06:55:39;;;;;;;0.10;0.10;;;;;;;7.95;86.58;100809.91;5079600;28;20054;-68
2021/11/30 06:58:05;;;;;;;0.10;0.10;;;;;;;7.96;86.31;100802.16;5078938;28;20359;-68
2021/11/30 07:00:30;;;;;;;0.20;0.20;;;;;;;7.97;86.31;100803.94;5078851;28;20093;-66
2021/11/30 07:02:56;;;;;;;0.10;0.10;;;;;;;8.01;86.29;100794.53;5078242;28;20021;-66
2021/11/30 07:05:32;;;;;;;0.10;0.10;;;;;;;8.00;86.20;100802.28;5075675;28;20044;-65
2021/11/30 07:08:16;;;;;;;0.20;0.20;;;;;;;7.97;86.64;100790.91;5077784;28;20028;-67
2021/11/30 07:10:46;;;;;;;0.20;0.20;;;;;;;8.01;86.57;100804.03;5077082;28;20284;-66
2021/11/30 07:15:40;;;;;;;0.00;0.00;;;;;;;8.03;86.48;100795.47;5076891;28;20100;-69
2021/11/30 07:18:05;;;;;;;0.10;0.10;;;;;;;8.03;86.23;100790.25;5077823;28;20116;-66
2021/11/30 07:20:31;;;;;;;0.00;0.00;;;;;;;8.05;86.65;100782.47;5073413;28;20029;-67
2021/11/30 07:22:57;;;;;;;0.27;0.27;;;;;;;8.04;86.60;100799.84;5058554;28;20071;-73
2021/11/30 07:25:24;;;;;;;0.10;0.10;;;;;;;8.10;86.79;100792.25;5073154;28;20129;-66
2021/11/30 07:27:53;;;;;;;0.10;0.10;;;;;;;8.11;86.76;100806.19;5078412;28;20028;-65
2021/11/30 07:30:19;;;;;;;0.03;0.03;;;;;;;8.10;87.05;100796.59;5078211;28;20020;-68
2021/11/30 07:32:45;;;;;;;0.10;0.10;;;;;;;8.05;87.42;100795.53;5078466;28;20024;-66
2021/11/30 07:35:10;;;;;;;0.13;0.13;;;;;;;8.05;87.41;100816.38;5078823;28;20047;-68
2021/11/30 07:37:36;;;;;;;0.10;0.10;;;;;;;8.02;87.63;100818.91;5061772;28;20391;-65
2021/11/30 07:40:02;;;;;;;0.10;0.10;;;;;;;8.01;87.47;100811.88;5077841;28;20036;-71
2021/11/30 07:42:31;;;;;;;0.00;0.00;;;;;;;8.03;87.72;100808.50;5078360;28;20028;-66
2021/11/30 07:44:57;;;;;;;0.00;0.00;;;;;;;8.04;87.56;100820.69;5060599;28;20418;-67
2021/11/30 07:47:22;;;;;;;0.00;0.00;;;;;;;8.06;87.48;100812.94;5078495;28;20031;-66
2021/11/30 07:49:47;;;;;;;0.20;0.20;;;;;;;8.10;87.16;100835.72;5040649;28;20028;-67
2021/11/30 07:52:13;;;;;;;0.00;0.00;;;;;;;8.09;87.11;100808.75;5058838;28;20287;-69
2021/11/30 07:54:39;;;;;;;0.00;0.00;;;;;;;8.10;87.12;100831.38;5040224;28;20043;-68
2021/11/30 07:57:04;;;;;;;0.10;0.10;;;;;;;8.09;87.08;100829.59;5058586;28;20029;-67
2021/11/30 07:59:30;;;;;;;0.00;0.00;;;;;;;8.13;86.97;100812.34;5057167;28;20056;-67
2021/11/30 08:01:55;;;;;;;0.00;0.00;;;;;;;8.16;86.91;100812.47;5068155;28;20025;-65
2021/11/30 08:04:21;;;;;;;0.20;0.20;;;;;;;8.19;86.70;100809.09;5077794;28;20025;-71
2021/11/30 08:06:46;;;;;;;0.00;0.00;;;;;;;8.19;86.87;100823.03;5078153;28;20043;-66
2021/11/30 08:09:12;;;;;;;0.10;0.10;;;;;;;8.23;86.67;100811.00;5075086;28;20048;-66
2021/11/30 08:11:38;;;;;;;0.10;0.10;;;;;;;8.25;86.48;100828.47;5060547;28;20024;-71
2021/11/30 08:14:03;;;;;;;0.00;0.00;;;;;;;8.25;86.48;100818.03;5077834;28;20074;-67
2021/11/30 08:16:28;;;;;;;0.00;0.00;;;;;;;8.27;86.41;100836.34;5077778;28;20020;-64
2021/11/30 08:18:54;;;;;;;0.10;0.10;;;;;;;8.28;86.46;100827.69;5060379;28;20024;-71
2021/11/30 08:21:19;;;;;;;0.10;0.10;;;;;;;8.29;86.49;100816.41;5077339;28;20288;-65
2021/11/30 08:23:44;;;;;;;0.10;0.10;;;;;;;8.27;86.50;100831.13;5059608;28;20024;-71
2021/11/30 08:26:12;;;;;;;0.03;0.03;;;;;;;8.30;86.05;100818.22;5060418;28;20036;-69
2021/11/30 08:28:38;;;;;;;0.07;0.07;;;;;;;8.33;85.92;100817.41;5077027;28;20028;-69
2021/11/30 08:31:04;;;;;;;0.20;0.20;;;;;;;8.34;85.69;100820.09;5060431;28;20119;-68
2021/11/30 08:33:29;;;;;;;0.20;0.20;;;;;;;8.35;85.80;100824.47;5076777;28;20107;-66
2021/11/30 08:35:56;;;;;;;0.30;0.30;;;;;;;8.39;85.63;100823.78;5077528;28;20064;-68
2021/11/30 08:38:22;;;;;;;0.10;0.10;;;;;;;8.38;85.56;100832.44;5077149;28;20030;-71
2021/11/30 08:40:47;;;;;;;0.10;0.10;;;;;;;8.37;85.46;100825.44;5059617;28;20017;-68
2021/11/30 08:43:13;;;;;;;0.20;0.20;;;;;;;8.37;85.50;100811.50;5077095;28;20032;-72
2021/11/30 08:45:39;;;;;;;0.10;0.10;;;;;;;8.41;85.21;100829.03;5077321;28;20105;-63
2021/11/30 08:48:04;;;;;;;0.10;0.10;;;;;;;8.47;85.06;100823.16;5076446;28;20060;-67
2021/11/30 08:50:30;;;;;;;0.20;0.20;;;;;;;8.46;85.08;100821.41;5077250;28;20040;-70
2021/11/30 08:52:56;;;;;;;0.10;0.10;;;;;;;8.47;84.83;100828.38;5076900;28;20021;-69
2021/11/30 08:55:22;;;;;;;0.10;0.10;;;;;;;8.48;85.02;100827.56;5059412;28;20272;-68
2021/11/30 08:57:48;;;;;;;0.10;0.10;;;;;;;8.50;85.08;100831.09;5058449;28;20030;-68
2021/11/30 09:00:23;;;;;;;0.10;0.10;;;;;;;8.50;85.15;100859.81;5076394;28;20042;-69
2021/11/30 09:02:48;;;;;;;0.20;0.20;;;;;;;8.50;85.16;100833.72;5059136;28;20033;-70
2021/11/30 09:05:15;;;;;;;0.10;0.10;;;;;;;8.54;85.09;100838.25;5077192;28;20025;-67
2021/11/30 09:07:40;;;;;;;0.30;0.30;;;;;;;8.53;84.99;100844.28;5076205;28;20020;-68
2021/11/30 09:10:07;;;;;;;0.20;0.20;;;;;;;8.52;85.05;100845.13;5058914;28;20043;-70
2021/11/30 09:12:33;;;;;;;0.17;0.17;;;;;;;8.54;84.94;100846.09;5076810;28;20028;-67
2021/11/30 09:14:58;;;;;;;0.10;0.10;;;;;;;8.56;84.87;100841.81;5076749;28;20029;-67
2021/11/30 09:17:24;;;;;;;0.10;0.10;;;;;;;8.58;84.64;100847.97;5059861;28;20371;-70
2021/11/30 09:19:50;;;;;;;0.20;0.20;;;;;;;8.60;84.40;100827.13;5076655;28;20101;-66
2021/11/30 09:22:15;;;;;;;0.20;0.20;;;;;;;8.63;84.31;100846.41;5076592;28;20060;-68
2021/11/30 09:24:41;;;;;;;0.17;0.17;;;;;;;8.63;84.43;100848.13;5075309;28;20036;-65
2021/11/30 09:27:06;;;;;;;0.20;0.20;;;;;;;8.66;84.25;100843.91;5076287;28;20037;-64
2021/11/30 09:29:32;;;;;;;0.10;0.10;;;;;;;8.75;84.18;100861.63;5079592;28;20021;-70
2021/11/30 09:31:57;;;;;;;0.10;0.10;;;;;;;8.77;83.69;100859.97;5080172;28;20294;-70
2021/11/30 09:34:25;;;;;;;0.20;0.20;;;;;;;8.78;84.05;100858.25;5080791;28;20143;-67
2021/11/30 09:36:53;;;;;;;0.20;0.20;;;;;;;8.80;83.80;100857.44;5080392;28;20394;-71
2021/11/30 09:39:18;;;;;;;0.10;0.10;;;;;;;8.80;84.10;100856.56;5080568;28;20125;-66
2021/11/30 09:41:44;;;;;;;0.10;0.10;;;;;;;8.75;84.75;100848.59;5080745;28;20426;-73
2021/11/30 09:44:11;;;;;;;0.30;0.30;;;;;;;8.71;84.83;100859.72;5062231;28;20429;-70
2021/11/30 09:46:38;;;;;;;0.20;0.20;;;;;;;8.70;85.33;100855.34;5079510;28;20290;-67
2021/11/30 09:49:04;;;;;;;0.30;0.30;;;;;;;8.73;85.50;100859.78;5062949;28;20013;-66
2021/11/30 09:51:30;;;;;;;0.10;0.10;;;;;;;8.71;85.65;100858.88;5062947;28;20085;-65
2021/11/30 09:53:55;;;;;;;0.27;0.27;;;;;;;8.73;85.40;100863.28;5080040;28;20115;-66
2021/11/30 09:56:21;;;;;;;0.10;0.10;;;;;;;8.75;85.45;100866.84;5080234;28;20029;-68
2021/11/30 09:58:47;;;;;;;0.20;0.20;;;;;;;8.75;85.39;100859.03;5079732;28;20024;-67
2021/11/30 10:01:13;;;;;;;0.23;0.23;;;;;;;8.74;85.25;100862.47;5062818;28;20040;-69
2021/11/30 10:03:41;;;;;;;0.00;0.00;;;;;;;8.72;85.57;100871.06;5080185;28;20311;-66
2021/11/30 10:06:08;;;;;;;0.10;0.10;;;;;;;8.70;85.63;100860.56;5080089;28;20024;-72
2021/11/30 10:08:38;;;;;;;0.10;0.10;;;;;;;8.74;85.56;100865.09;5079292;28;20398;-68
2021/11/30 10:11:04;;;;;;;0.10;0.10;;;;;;;8.78;85.05;100860.88;5080498;28;20142;-68
2021/11/30 10:13:30;;;;;;;0.10;0.10;;;;;;;8.78;85.18;100874.78;5079962;28;20445;-68
2021/11/30 10:16:01;;;;;;;0.20;0.20;;;;;;;8.85;84.91;100869.78;5079860;28;20096;-71
2021/11/30 10:18:42;;;;;;;0.20;0.20;;;;;;;8.88;84.83;100862.06;5079134;28;20063;-65
2021/11/30 10:21:20;;;;;;;0.10;0.10;;;;;;;8.89;84.76;100876.88;5079728;28;20031;-67
2021/11/30 10:24:06;;;;;;;0.20;0.20;;;;;;;8.92;84.59;100861.34;5079299;28;20035;-68
2021/11/30 10:26:41;;;;;;;0.10;0.10;;;;;;;8.89;84.74;100864.75;5079028;28;20056;-64
2021/11/30 10:29:08;;;;;;;0.13;0.13;;;;;;;8.87;84.87;100869.03;5079145;28;20087;-66
2021/11/30 10:31:42;;;;;;;0.17;0.17;;;;;;;8.85;85.13;100875.88;5079677;28;20032;-66
2021/11/30 10:34:15;;;;;;;0.10;0.10;;;;;;;8.81;85.55;100874.00;5078898;28;20334;-66
2021/11/30 10:36:45;;;;;;;0.10;0.10;;;;;;;8.76;85.87;100883.41;5079597;28;20294;-67
2021/11/30 10:39:25;;;;;;;0.00;0.00;;;;;;;8.69;86.43;100873.56;5077832;28;20036;-68
2021/11/30 10:41:52;;;;;;;0.10;0.10;;;;;;;8.70;86.54;100870.16;5079797;28;20390;-67
2021/11/30 10:44:31;;;;;;;0.00;0.00;;;;;;;8.70;86.48;100871.00;5079397;28;20020;-66
2021/11/30 10:47:10;;;;;;;0.00;0.00;;;;;;;8.73;86.53;100860.66;5079580;28;20036;-67
2021/11/30 10:49:44;;;;;;;0.10;0.10;;;;;;;8.76;86.48;100865.13;5061872;28;20111;-70
2021/11/30 10:52:14;;;;;;;0.10;0.10;;;;;;;8.74;86.73;100872.91;5061875;28;20064;-67
2021/11/30 10:54:39;;;;;;;0.00;0.00;;;;;;;8.73;86.79;100865.88;5078483;28;20136;-71
2021/11/30 10:57:05;;;;;;;0.00;0.00;;;;;;;8.71;86.79;100857.13;5061563;28;20114;-72
2021/11/30 10:59:30;;;;;;;0.10;0.10;;;;;;;8.69;87.05;100873.56;5078692;28;20360;-66
2021/11/30 11:01:56;;;;;;;0.10;0.10;;;;;;;8.66;87.31;100858.69;5079448;28;20036;-64
2021/11/30 11:04:33;;;;;;;0.10;0.10;;;;;;;8.68;87.22;100857.03;5078556;28;20387;-64
2021/11/30 11:07:07;;;;;;;0.07;0.07;;;;;;;8.68;87.06;100850.91;5079468;28;20056;-64
2021/11/30 11:09:39;;;;;;;0.00;0.00;;;;;;;8.67;87.07;100852.63;5078484;28;20036;-64
2021/11/30 11:12:05;;;;;;;0.07;0.07;;;;;;;8.68;87.31;100861.34;5079371;28;20135;-65
2021/11/30 11:14:48;;;;;;;0.10;0.10;;;;;;;8.66;87.21;100849.13;5061176;28;20344;-64
2021/11/30 11:17:31;;;;;;;0.10;0.10;;;;;;;8.67;86.77;100863.09;5061201;28;20071;-63
2021/11/30 11:19:57;;;;;;;0.10;0.10;;;;;;;8.70;86.91;100851.88;5078985;28;20103;-65
2021/11/30 11:22:25;;;;;;;0.03;0.03;;;;;;;8.74;86.96;100848.53;5079155;28;20100;-64
2021/11/30 11:24:52;;;;;;;0.00;0.00;;;;;;;8.72;86.64;100844.97;5060864;28;20040;-66
2021/11/30 11:27:28;;;;;;;0.00;0.00;;;;;;;8.70;86.81;100852.75;5061615;28;20294;-67
2021/11/30 11:29:53;;;;;;;;;;;;;;;8.69;87.40;100840.53;5061545;28;20033;-64
2021/11/30 11:32:19;;;;;;;0.10;0.10;;;;;;;8.68;87.46;100851.81;5078334;28;20278;-65
2021/11/30 11:34:45;;;;;;;0.10;0.10;;;;;;;8.68;87.49;100853.50;5078205;28;20036;-70
2021/11/30 11:37:11;;;;;;;0.87;0.73;;;;;;;8.66;87.50;100843.03;5061316;28;20066;-64
2021/11/30 11:39:37;;;;;;;0.20;0.20;;;;;;;8.67;87.46;100852.63;5060554;28;20024;-70
2021/11/30 11:42:08;;;;;;;0.10;0.10;;;;;;;8.69;87.27;100847.44;5060634;28;20036;-65
2021/11/30 11:44:36;;;;;;;0.00;0.00;;;;;;;8.73;87.19;100854.56;5060472;28;20048;-64